Tupper Lake, New York
Current Conditions -  °F | °C
As of 12:51 AM on Wednesday 28 Jan 2015 (Local Time) from KSLK Reporting Station
Broken Clouds Broken Clouds  
Wind Chill: -3°   Ceiling: 9000
Heat Index:   Visibility: 10mi
Dew Point: -1°   Wind: 5mph
Humidity: 73%   Direction: 350°N
Pressure: 29.83"   Gusts: NA
Location:  44.22°N, 74.46°W
Report Text: KSLK 280551Z AUTO 35004KT 10SM FEW033 BKN090 BKN120 M14/M18 A2983 RMK AO2 SLP139 T11441183 11144 21150 51000
Loading
Personal Weather Stations






























Interactive Weather Map New forecast layout! Learn more

10-Day Weather Forecast

Advertisements
Track Severe Weather on mobile